sensor_id;sensor_type;location;lat;lon;timestamp;temperature;humidity
10046;DHT22;5063;50.878;4.742;2023-09-12T00:01:34;18.00;99.90
10046;DHT22;5063;50.878;4.742;2023-09-12T00:04:00;18.00;99.90
10046;DHT22;5063;50.878;4.742;2023-09-12T00:06:26;18.00;99.90
10046;DHT22;5063;50.878;4.742;2023-09-12T00:08:52;18.10;99.90
10046;DHT22;5063;50.878;4.742;2023-09-12T00:11:18;18.10;99.90
10046;DHT22;5063;50.878;4.742;2023-09-12T00:13:44;18.10;99.90
10046;DHT22;5063;50.878;4.742;2023-09-12T00:16:10;18.10;99.90
10046;DHT22;5063;50.878;4.742;2023-09-12T00:18:37;18.10;99.90
10046;DHT22;5063;50.878;4.742;2023-09-12T00:21:03;18.10;99.90
10046;DHT22;5063;50.878;4.742;2023-09-12T00:23:29;18.10;99.90
10046;DHT22;5063;50.878;4.742;2023-09-12T00:25:54;18.00;99.90
10046;DHT22;5063;50.878;4.742;2023-09-12T00:28:21;18.00;99.90
10046;DHT22;5063;50.878;4.742;2023-09-12T00:30:46;18.00;99.90
10046;DHT22;5063;50.878;4.742;2023-09-12T00:33:12;18.00;99.90
10046;DHT22;5063;50.878;4.742;2023-09-12T00:35:38;18.00;99.90
10046;DHT22;5063;50.878;4.742;2023-09-12T00:38:04;17.90;99.90
10046;DHT22;5063;50.878;4.742;2023-09-12T00:40:29;17.90;99.90
10046;DHT22;5063;50.878;4.742;2023-09-12T00:42:55;17.90;99.90
10046;DHT22;5063;50.878;4.742;2023-09-12T00:45:21;17.90;99.90
10046;DHT22;5063;50.878;4.742;2023-09-12T00:47:48;17.90;99.90
10046;DHT22;5063;50.878;4.742;2023-09-12T00:50:15;17.90;99.90
10046;DHT22;5063;50.878;4.742;2023-09-12T00:52:42;17.90;99.90
10046;DHT22;5063;50.878;4.742;2023-09-12T00:55:08;17.90;99.90
10046;DHT22;5063;50.878;4.742;2023-09-12T00:57:34;17.90;99.90
10046;DHT22;5063;50.878;4.742;2023-09-12T01:00:03;17.90;99.90
10046;DHT22;5063;50.878;4.742;2023-09-12T01:02:44;17.90;99.90
10046;DHT22;5063;50.878;4.742;2023-09-12T01:05:13;17.90;99.90
10046;DHT22;5063;50.878;4.742;2023-09-12T01:07:39;18.00;99.90
10046;DHT22;5063;50.878;4.742;2023-09-12T01:10:06;17.90;99.90
10046;DHT22;5063;50.878;4.742;2023-09-12T01:12:32;17.90;99.90
10046;DHT22;5063;50.878;4.742;2023-09-12T01:14:58;17.90;99.90
10046;DHT22;5063;50.878;4.742;2023-09-12T01:17:24;17.90;99.90
10046;DHT22;5063;50.878;4.742;2023-09-12T01:19:51;17.90;99.90
10046;DHT22;5063;50.878;4.742;2023-09-12T01:22:51;17.90;99.90
10046;DHT22;5063;50.878;4.742;2023-09-12T01:28:00;17.80;99.90
10046;DHT22;5063;50.878;4.742;2023-09-12T01:30:28;17.70;99.90
10046;DHT22;5063;50.878;4.742;2023-09-12T01:32:56;17.70;99.90
10046;DHT22;5063;50.878;4.742;2023-09-12T01:35:22;17.70;99.90
10046;DHT22;5063;50.878;4.742;2023-09-12T01:37:48;17.70;99.90
10046;DHT22;5063;50.878;4.742;2023-09-12T01:40:13;17.70;99.90
10046;DHT22;5063;50.878;4.742;2023-09-12T01:42:43;17.60;99.90
10046;DHT22;5063;50.878;4.742;2023-09-12T01:45:12;17.60;99.90
10046;DHT22;5063;50.878;4.742;2023-09-12T01:47:39;17.60;99.90
10046;DHT22;5063;50.878;4.742;2023-09-12T01:50:08;17.60;99.90
10046;DHT22;5063;50.878;4.742;2023-09-12T01:52:35;17.60;99.90
10046;DHT22;5063;50.878;4.742;2023-09-12T01:55:02;17.60;99.90
10046;DHT22;5063;50.878;4.742;2023-09-12T01:57:28;17.70;99.90
10046;DHT22;5063;50.878;4.742;2023-09-12T01:59:54;17.70;99.90
10046;DHT22;5063;50.878;4.742;2023-09-12T02:02:20;17.70;99.90
10046;DHT22;5063;50.878;4.742;2023-09-12T02:05:16;17.70;99.90
10046;DHT22;5063;50.878;4.742;2023-09-12T02:07:45;17.60;99.90
10046;DHT22;5063;50.878;4.742;2023-09-12T02:10:11;17.60;99.90
10046;DHT22;5063;50.878;4.742;2023-09-12T02:12:37;17.60;99.90
10046;DHT22;5063;50.878;4.742;2023-09-12T02:15:04;17.60;99.90
10046;DHT22;5063;50.878;4.742;2023-09-12T02:17:29;17.70;99.90
10046;DHT22;5063;50.878;4.742;2023-09-12T02:19:55;17.70;99.90
10046;DHT22;5063;50.878;4.742;2023-09-12T02:22:22;17.70;99.90
10046;DHT22;5063;50.878;4.742;2023-09-12T02:24:48;17.70;99.90
10046;DHT22;5063;50.878;4.742;2023-09-12T02:27:14;17.70;99.90
10046;DHT22;5063;50.878;4.742;2023-09-12T02:29:41;17.60;99.90
10046;DHT22;5063;50.878;4.742;2023-09-12T02:32:07;17.70;99.90
10046;DHT22;5063;50.878;4.742;2023-09-12T02:34:33;17.70;99.90
10046;DHT22;5063;50.878;4.742;2023-09-12T02:36:59;17.80;99.90
10046;DHT22;5063;50.878;4.742;2023-09-12T02:39:25;17.80;99.90
10046;DHT22;5063;50.878;4.742;2023-09-12T02:41:51;17.80;99.90
10046;DHT22;5063;50.878;4.742;2023-09-12T02:44:16;17.90;99.90
10046;DHT22;5063;50.878;4.742;2023-09-12T02:46:42;17.90;99.90
10046;DHT22;5063;50.878;4.742;2023-09-12T02:49:08;17.90;99.90
10046;DHT22;5063;50.878;4.742;2023-09-12T02:51:34;18.00;99.90
10046;DHT22;5063;50.878;4.742;2023-09-12T02:53:59;18.00;99.90
10046;DHT22;5063;50.878;4.742;2023-09-12T02:56:25;18.00;99.90
10046;DHT22;5063;50.878;4.742;2023-09-12T02:58:51;18.00;99.90
10046;DHT22;5063;50.878;4.742;2023-09-12T03:01:18;18.10;99.90
10046;DHT22;5063;50.878;4.742;2023-09-12T03:03:47;18.10;99.90
10046;DHT22;5063;50.878;4.742;2023-09-12T03:06:13;18.10;99.90
10046;DHT22;5063;50.878;4.742;2023-09-12T03:08:40;18.20;99.90
10046;DHT22;5063;50.878;4.742;2023-09-12T03:11:06;18.20;99.90
10046;DHT22;5063;50.878;4.742;2023-09-12T03:13:33;18.20;99.90
10046;DHT22;5063;50.878;4.742;2023-09-12T03:15:59;18.20;99.90
10046;DHT22;5063;50.878;4.742;2023-09-12T03:18:25;18.20;99.90
10046;DHT22;5063;50.878;4.742;2023-09-12T03:20:51;18.20;99.90
10046;DHT22;5063;50.878;4.742;2023-09-12T03:23:17;18.20;99.90
10046;DHT22;5063;50.878;4.742;2023-09-12T03:25:42;18.20;99.90
10046;DHT22;5063;50.878;4.742;2023-09-12T03:28:08;18.20;99.90
10046;DHT22;5063;50.878;4.742;2023-09-12T03:30:35;18.20;99.90
10046;DHT22;5063;50.878;4.742;2023-09-12T03:33:01;18.20;99.90
10046;DHT22;5063;50.878;4.742;2023-09-12T03:35:28;18.20;99.90
10046;DHT22;5063;50.878;4.742;2023-09-12T03:37:54;18.20;99.90
10046;DHT22;5063;50.878;4.742;2023-09-12T03:40:20;18.30;99.90
10046;DHT22;5063;50.878;4.742;2023-09-12T03:42:46;18.30;99.90
10046;DHT22;5063;50.878;4.742;2023-09-12T03:45:11;18.30;99.90
10046;DHT22;5063;50.878;4.742;2023-09-12T03:47:37;18.30;99.90
10046;DHT22;5063;50.878;4.742;2023-09-12T03:50:03;18.30;99.90
10046;DHT22;5063;50.878;4.742;2023-09-12T03:52:30;18.30;99.90
10046;DHT22;5063;50.878;4.742;2023-09-12T03:54:55;18.30;99.90
10046;DHT22;5063;50.878;4.742;2023-09-12T03:57:21;18.30;99.90
10046;DHT22;5063;50.878;4.742;2023-09-12T03:59:47;18.30;99.90
10046;DHT22;5063;50.878;4.742;2023-09-12T04:02:13;18.30;99.90
10046;DHT22;5063;50.878;4.742;2023-09-12T04:04:39;18.30;99.90
10046;DHT22;5063;50.878;4.742;2023-09-12T04:07:05;18.30;99.90
10046;DHT22;5063;50.878;4.742;2023-09-12T04:09:31;18.30;99.90
10046;DHT22;5063;50.878;4.742;2023-09-12T04:11:56;18.30;99.90
10046;DHT22;5063;50.878;4.742;2023-09-12T04:14:22;18.30;99.90
10046;DHT22;5063;50.878;4.742;2023-09-12T04:16:48;18.30;99.90
10046;DHT22;5063;50.878;4.742;2023-09-12T04:19:14;18.40;99.90
10046;DHT22;5063;50.878;4.742;2023-09-12T04:21:40;18.30;99.90
10046;DHT22;5063;50.878;4.742;2023-09-12T04:24:07;18.40;99.90
10046;DHT22;5063;50.878;4.742;2023-09-12T04:26:33;18.40;99.90
10046;DHT22;5063;50.878;4.742;2023-09-12T04:28:58;18.40;99.90
10046;DHT22;5063;50.878;4.742;2023-09-12T04:31:24;18.40;99.90
10046;DHT22;5063;50.878;4.742;2023-09-12T04:33:54;18.40;99.90
10046;DHT22;5063;50.878;4.742;2023-09-12T04:36:20;18.40;99.90
10046;DHT22;5063;50.878;4.742;2023-09-12T04:38:46;18.40;99.90
10046;DHT22;5063;50.878;4.742;2023-09-12T04:41:13;18.40;99.90
10046;DHT22;5063;50.878;4.742;2023-09-12T04:43:45;18.40;99.90
10046;DHT22;5063;50.878;4.742;2023-09-12T04:46:11;18.40;99.90
10046;DHT22;5063;50.878;4.742;2023-09-12T04:48:37;18.40;99.90
10046;DHT22;5063;50.878;4.742;2023-09-12T04:51:03;18.40;99.90
10046;DHT22;5063;50.878;4.742;2023-09-12T04:53:29;18.40;99.90
10046;DHT22;5063;50.878;4.742;2023-09-12T04:56:05;18.40;99.90
10046;DHT22;5063;50.878;4.742;2023-09-12T04:58:32;18.40;99.90
10046;DHT22;5063;50.878;4.742;2023-09-12T05:00:58;18.40;99.90
10046;DHT22;5063;50.878;4.742;2023-09-12T05:03:24;18.40;99.90
10046;DHT22;5063;50.878;4.742;2023-09-12T05:05:50;18.40;99.90
10046;DHT22;5063;50.878;4.742;2023-09-12T05:08:16;18.40;99.90
10046;DHT22;5063;50.878;4.742;2023-09-12T05:10:46;18.40;99.90
10046;DHT22;5063;50.878;4.742;2023-09-12T05:13:12;18.40;99.90
10046;DHT22;5063;50.878;4.742;2023-09-12T05:15:40;18.40;99.90
10046;DHT22;5063;50.878;4.742;2023-09-12T05:18:06;18.40;99.90
10046;DHT22;5063;50.878;4.742;2023-09-12T05:20:33;18.40;99.90
10046;DHT22;5063;50.878;4.742;2023-09-12T05:22:59;18.40;99.90
10046;DHT22;5063;50.878;4.742;2023-09-12T05:25:25;18.40;99.90
10046;DHT22;5063;50.878;4.742;2023-09-12T05:27:52;18.30;99.90
10046;DHT22;5063;50.878;4.742;2023-09-12T05:30:18;18.40;99.90
10046;DHT22;5063;50.878;4.742;2023-09-12T05:32:44;18.30;99.90
10046;DHT22;5063;50.878;4.742;2023-09-12T05:35:10;18.30;99.90
10046;DHT22;5063;50.878;4.742;2023-09-12T05:37:35;18.30;99.90
10046;DHT22;5063;50.878;4.742;2023-09-12T05:40:01;18.30;99.90
10046;DHT22;5063;50.878;4.742;2023-09-12T05:42:28;18.20;99.90
10046;DHT22;5063;50.878;4.742;2023-09-12T05:44:54;18.20;99.90
10046;DHT22;5063;50.878;4.742;2023-09-12T05:47:20;18.20;99.90
10046;DHT22;5063;50.878;4.742;2023-09-12T05:49:46;18.20;99.90
10046;DHT22;5063;50.878;4.742;2023-09-12T05:52:11;18.10;99.90
10046;DHT22;5063;50.878;4.742;2023-09-12T05:54:38;18.20;99.90
10046;DHT22;5063;50.878;4.742;2023-09-12T05:57:04;18.10;99.90
10046;DHT22;5063;50.878;4.742;2023-09-12T05:59:30;18.10;99.90
10046;DHT22;5063;50.878;4.742;2023-09-12T06:01:56;18.20;99.90
10046;DHT22;5063;50.878;4.742;2023-09-12T06:04:22;18.20;99.90
10046;DHT22;5063;50.878;4.742;2023-09-12T06:06:47;18.30;99.90
10046;DHT22;5063;50.878;4.742;2023-09-12T06:09:13;18.40;99.90
10046;DHT22;5063;50.878;4.742;2023-09-12T06:11:39;18.50;99.90
10046;DHT22;5063;50.878;4.742;2023-09-12T06:14:04;18.60;99.90
10046;DHT22;5063;50.878;4.742;2023-09-12T06:16:30;18.70;99.90
10046;DHT22;5063;50.878;4.742;2023-09-12T06:18:56;18.70;99.90
10046;DHT22;5063;50.878;4.742;2023-09-12T06:21:21;18.80;99.90
10046;DHT22;5063;50.878;4.742;2023-09-12T06:23:48;18.90;99.90
10046;DHT22;5063;50.878;4.742;2023-09-12T06:26:14;19.10;99.90
10046;DHT22;5063;50.878;4.742;2023-09-12T06:28:40;19.20;99.90
10046;DHT22;5063;50.878;4.742;2023-09-12T06:31:08;19.20;99.90
10046;DHT22;5063;50.878;4.742;2023-09-12T06:33:35;19.40;99.90
10046;DHT22;5063;50.878;4.742;2023-09-12T06:36:00;19.50;99.90
10046;DHT22;5063;50.878;4.742;2023-09-12T06:38:26;20.10;99.90
10046;DHT22;5063;50.878;4.742;2023-09-12T06:40:52;20.80;99.90
10046;DHT22;5063;50.878;4.742;2023-09-12T06:43:17;21.80;99.90
10046;DHT22;5063;50.878;4.742;2023-09-12T06:45:44;22.70;99.90
10046;DHT22;5063;50.878;4.742;2023-09-12T06:48:09;23.80;99.90
10046;DHT22;5063;50.878;4.742;2023-09-12T06:50:35;24.40;99.90
10046;DHT22;5063;50.878;4.742;2023-09-12T06:53:04;25.00;99.90
10046;DHT22;5063;50.878;4.742;2023-09-12T06:55:32;25.60;99.90
10046;DHT22;5063;50.878;4.742;2023-09-12T06:57:58;26.10;99.90
10046;DHT22;5063;50.878;4.742;2023-09-12T07:00:23;26.60;99.90
10046;DHT22;5063;50.878;4.742;2023-09-12T07:02:49;26.80;99.90
10046;DHT22;5063;50.878;4.742;2023-09-12T07:05:15;27.00;99.90
10046;DHT22;5063;50.878;4.742;2023-09-12T07:07:41;27.40;99.90
10046;DHT22;5063;50.878;4.742;2023-09-12T07:10:07;27.60;99.90
10046;DHT22;5063;50.878;4.742;2023-09-12T07:12:32;28.10;99.90
10046;DHT22;5063;50.878;4.742;2023-09-12T07:14:58;28.60;99.90
10046;DHT22;5063;50.878;4.742;2023-09-12T07:17:24;28.90;99.90
10046;DHT22;5063;50.878;4.742;2023-09-12T07:19:49;29.10;99.90
10046;DHT22;5063;50.878;4.742;2023-09-12T07:22:16;29.60;99.90
10046;DHT22;5063;50.878;4.742;2023-09-12T07:24:42;29.10;99.90
10046;DHT22;5063;50.878;4.742;2023-09-12T07:27:07;28.40;99.90
10046;DHT22;5063;50.878;4.742;2023-09-12T07:29:33;27.90;99.90
10046;DHT22;5063;50.878;4.742;2023-09-12T07:31:59;27.20;99.90
10046;DHT22;5063;50.878;4.742;2023-09-12T07:34:25;26.90;99.90
10046;DHT22;5063;50.878;4.742;2023-09-12T07:36:50;26.80;99.90
10046;DHT22;5063;50.878;4.742;2023-09-12T07:39:19;27.70;99.90
10046;DHT22;5063;50.878;4.742;2023-09-12T07:41:46;29.10;99.90
10046;DHT22;5063;50.878;4.742;2023-09-12T07:44:12;30.30;99.90
10046;DHT22;5063;50.878;4.742;2023-09-12T07:46:41;31.00;99.90
10046;DHT22;5063;50.878;4.742;2023-09-12T07:49:06;31.00;99.90
10046;DHT22;5063;50.878;4.742;2023-09-12T07:51:34;30.50;99.90
10046;DHT22;5063;50.878;4.742;2023-09-12T07:54:01;30.10;99.90
10046;DHT22;5063;50.878;4.742;2023-09-12T07:56:27;30.30;99.90
10046;DHT22;5063;50.878;4.742;2023-09-12T07:58:52;30.90;99.90
10046;DHT22;5063;50.878;4.742;2023-09-12T08:01:18;31.40;99.90
10046;DHT22;5063;50.878;4.742;2023-09-12T08:03:44;31.00;99.90
10046;DHT22;5063;50.878;4.742;2023-09-12T08:06:09;29.60;99.90
10046;DHT22;5063;50.878;4.742;2023-09-12T08:08:35;28.40;99.90
10046;DHT22;5063;50.878;4.742;2023-09-12T08:11:01;28.30;99.90
10046;DHT22;5063;50.878;4.742;2023-09-12T08:13:28;29.00;99.90
10046;DHT22;5063;50.878;4.742;2023-09-12T08:15:55;29.50;99.90
10046;DHT22;5063;50.878;4.742;2023-09-12T08:18:21;29.00;99.90
10046;DHT22;5063;50.878;4.742;2023-09-12T08:20:47;28.90;99.90
10046;DHT22;5063;50.878;4.742;2023-09-12T08:23:12;29.40;99.90
10046;DHT22;5063;50.878;4.742;2023-09-12T08:25:39;29.20;99.90
10046;DHT22;5063;50.878;4.742;2023-09-12T08:28:05;28.70;99.90
10046;DHT22;5063;50.878;4.742;2023-09-12T08:30:31;27.80;99.90
10046;DHT22;5063;50.878;4.742;2023-09-12T08:32:58;26.70;99.90
10046;DHT22;5063;50.878;4.742;2023-09-12T08:35:24;26.00;99.90
10046;DHT22;5063;50.878;4.742;2023-09-12T08:37:52;25.70;99.90
10046;DHT22;5063;50.878;4.742;2023-09-12T08:40:17;25.70;99.90
10046;DHT22;5063;50.878;4.742;2023-09-12T08:42:44;25.70;99.90
10046;DHT22;5063;50.878;4.742;2023-09-12T08:45:15;25.70;99.90
10046;DHT22;5063;50.878;4.742;2023-09-12T08:47:43;25.90;99.90
10046;DHT22;5063;50.878;4.742;2023-09-12T08:50:11;26.70;99.90
10046;DHT22;5063;50.878;4.742;2023-09-12T08:52:37;27.60;99.90
10046;DHT22;5063;50.878;4.742;2023-09-12T08:55:03;28.80;99.90
10046;DHT22;5063;50.878;4.742;2023-09-12T08:57:33;30.00;99.90
10046;DHT22;5063;50.878;4.742;2023-09-12T09:00:02;30.90;99.90
10046;DHT22;5063;50.878;4.742;2023-09-12T09:02:36;31.50;99.90
10046;DHT22;5063;50.878;4.742;2023-09-12T09:05:04;30.90;99.90
10046;DHT22;5063;50.878;4.742;2023-09-12T09:07:39;30.40;99.90
10046;DHT22;5063;50.878;4.742;2023-09-12T09:10:07;29.70;99.90
10046;DHT22;5063;50.878;4.742;2023-09-12T09:12:34;29.10;99.90
10046;DHT22;5063;50.878;4.742;2023-09-12T09:15:27;28.60;99.90
10046;DHT22;5063;50.878;4.742;2023-09-12T09:17:54;27.80;99.90
10046;DHT22;5063;50.878;4.742;2023-09-12T09:20:34;27.50;99.90
10046;DHT22;5063;50.878;4.742;2023-09-12T09:23:12;26.70;99.90
10046;DHT22;5063;50.878;4.742;2023-09-12T09:25:42;26.50;99.90
10046;DHT22;5063;50.878;4.742;2023-09-12T09:28:19;26.60;99.90
10046;DHT22;5063;50.878;4.742;2023-09-12T09:30:46;26.60;99.90
10046;DHT22;5063;50.878;4.742;2023-09-12T09:33:13;26.50;99.90
10046;DHT22;5063;50.878;4.742;2023-09-12T09:35:46;26.30;99.90
10046;DHT22;5063;50.878;4.742;2023-09-12T09:38:12;26.50;99.90
10046;DHT22;5063;50.878;4.742;2023-09-12T09:40:43;26.70;99.90
10046;DHT22;5063;50.878;4.742;2023-09-12T09:43:09;26.80;99.90
10046;DHT22;5063;50.878;4.742;2023-09-12T09:45:43;26.70;99.90
10046;DHT22;5063;50.878;4.742;2023-09-12T09:48:10;26.60;99.90
10046;DHT22;5063;50.878;4.742;2023-09-12T09:50:42;26.80;99.90
10046;DHT22;5063;50.878;4.742;2023-09-12T09:53:08;26.80;99.90
10046;DHT22;5063;50.878;4.742;2023-09-12T09:55:35;26.80;99.90
10046;DHT22;5063;50.878;4.742;2023-09-12T09:58:02;26.30;99.90
10046;DHT22;5063;50.878;4.742;2023-09-12T10:00:29;26.10;99.90
10046;DHT22;5063;50.878;4.742;2023-09-12T10:02:55;26.60;99.90
10046;DHT22;5063;50.878;4.742;2023-09-12T10:05:22;27.00;99.90
10046;DHT22;5063;50.878;4.742;2023-09-12T10:07:50;27.10;99.90
10046;DHT22;5063;50.878;4.742;2023-09-12T10:10:19;27.20;99.90
10046;DHT22;5063;50.878;4.742;2023-09-12T10:13:05;27.20;99.90
10046;DHT22;5063;50.878;4.742;2023-09-12T10:15:32;27.50;99.90
10046;DHT22;5063;50.878;4.742;2023-09-12T10:18:02;27.70;99.90
10046;DHT22;5063;50.878;4.742;2023-09-12T10:20:38;27.70;99.90
10046;DHT22;5063;50.878;4.742;2023-09-12T10:23:15;27.60;99.90
10046;DHT22;5063;50.878;4.742;2023-09-12T10:25:45;27.80;99.90
10046;DHT22;5063;50.878;4.742;2023-09-12T10:28:11;27.70;99.90
10046;DHT22;5063;50.878;4.742;2023-09-12T10:30:38;27.50;99.90
10046;DHT22;5063;50.878;4.742;2023-09-12T10:33:05;27.70;99.90
10046;DHT22;5063;50.878;4.742;2023-09-12T10:35:32;27.60;99.90
10046;DHT22;5063;50.878;4.742;2023-09-12T10:38:00;27.70;99.90
10046;DHT22;5063;50.878;4.742;2023-09-12T10:40:29;27.70;99.90
10046;DHT22;5063;50.878;4.742;2023-09-12T10:42:57;27.90;99.90
10046;DHT22;5063;50.878;4.742;2023-09-12T10:45:26;28.10;99.90
10046;DHT22;5063;50.878;4.742;2023-09-12T10:47:51;28.00;99.90
10046;DHT22;5063;50.878;4.742;2023-09-12T10:50:19;27.90;99.90
10046;DHT22;5063;50.878;4.742;2023-09-12T10:52:45;28.10;99.90
10046;DHT22;5063;50.878;4.742;2023-09-12T10:55:16;28.30;99.90
10046;DHT22;5063;50.878;4.742;2023-09-12T10:58:01;28.60;99.90
10046;DHT22;5063;50.878;4.742;2023-09-12T11:00:28;28.90;99.90
10046;DHT22;5063;50.878;4.742;2023-09-12T11:02:54;29.30;99.90
10046;DHT22;5063;50.878;4.742;2023-09-12T11:07:59;29.10;99.90
10046;DHT22;5063;50.878;4.742;2023-09-12T11:10:25;29.20;99.90
10046;DHT22;5063;50.878;4.742;2023-09-12T11:12:53;29.20;99.90
10046;DHT22;5063;50.878;4.742;2023-09-12T11:15:24;28.90;99.90
10046;DHT22;5063;50.878;4.742;2023-09-12T11:18:02;28.50;99.90
10046;DHT22;5063;50.878;4.742;2023-09-12T11:21:06;28.40;99.90
10046;DHT22;5063;50.878;4.742;2023-09-12T11:23:32;27.80;99.90
10046;DHT22;5063;50.878;4.742;2023-09-12T11:26:07;27.80;99.90
10046;DHT22;5063;50.878;4.742;2023-09-12T11:28:33;27.80;99.90
10046;DHT22;5063;50.878;4.742;2023-09-12T11:30:59;28.00;99.90
10046;DHT22;5063;50.878;4.742;2023-09-12T11:33:25;27.70;99.90
10046;DHT22;5063;50.878;4.742;2023-09-12T11:35:54;27.90;99.90
10046;DHT22;5063;50.878;4.742;2023-09-12T11:38:30;27.90;99.90
10046;DHT22;5063;50.878;4.742;2023-09-12T11:40:57;27.80;99.90
10046;DHT22;5063;50.878;4.742;2023-09-12T11:43:24;27.60;99.90
10046;DHT22;5063;50.878;4.742;2023-09-12T11:45:51;27.30;99.90
10046;DHT22;5063;50.878;4.742;2023-09-12T11:48:18;27.10;99.90
10046;DHT22;5063;50.878;4.742;2023-09-12T11:50:49;27.00;99.90
10046;DHT22;5063;50.878;4.742;2023-09-12T11:53:23;27.10;99.90
10046;DHT22;5063;50.878;4.742;2023-09-12T11:55:56;26.90;99.90
10046;DHT22;5063;50.878;4.742;2023-09-12T11:58:24;26.90;99.90
10046;DHT22;5063;50.878;4.742;2023-09-12T12:00:52;27.00;99.90
10046;DHT22;5063;50.878;4.742;2023-09-12T12:03:21;27.00;99.90
10046;DHT22;5063;50.878;4.742;2023-09-12T12:05:47;27.20;99.90
10046;DHT22;5063;50.878;4.742;2023-09-12T12:08:14;26.90;99.90
10046;DHT22;5063;50.878;4.742;2023-09-12T12:10:41;27.10;99.90
10046;DHT22;5063;50.878;4.742;2023-09-12T12:13:11;27.20;99.90
10046;DHT22;5063;50.878;4.742;2023-09-12T12:15:37;27.20;99.90
10046;DHT22;5063;50.878;4.742;2023-09-12T12:18:04;27.00;99.90
10046;DHT22;5063;50.878;4.742;2023-09-12T12:20:29;27.00;99.90
10046;DHT22;5063;50.878;4.742;2023-09-12T12:22:56;27.00;99.90
10046;DHT22;5063;50.878;4.742;2023-09-12T12:25:22;26.70;99.90
10046;DHT22;5063;50.878;4.742;2023-09-12T12:27:48;26.60;99.90
10046;DHT22;5063;50.878;4.742;2023-09-12T12:30:14;26.50;99.90
10046;DHT22;5063;50.878;4.742;2023-09-12T12:32:44;26.50;99.90
10046;DHT22;5063;50.878;4.742;2023-09-12T12:35:22;26.50;99.90
10046;DHT22;5063;50.878;4.742;2023-09-12T12:37:49;26.30;99.90
10046;DHT22;5063;50.878;4.742;2023-09-12T12:40:16;26.20;99.90
10046;DHT22;5063;50.878;4.742;2023-09-12T12:42:45;26.20;99.90
10046;DHT22;5063;50.878;4.742;2023-09-12T12:47:42;26.10;99.90
10046;DHT22;5063;50.878;4.742;2023-09-12T12:50:12;26.00;99.90
10046;DHT22;5063;50.878;4.742;2023-09-12T12:52:39;26.00;99.90
10046;DHT22;5063;50.878;4.742;2023-09-12T12:55:10;26.20;99.90
10046;DHT22;5063;50.878;4.742;2023-09-12T12:57:40;26.40;99.90
10046;DHT22;5063;50.878;4.742;2023-09-12T13:00:17;26.60;99.90
10046;DHT22;5063;50.878;4.742;2023-09-12T13:02:44;26.90;99.90
10046;DHT22;5063;50.878;4.742;2023-09-12T13:05:28;26.90;99.90
10046;DHT22;5063;50.878;4.742;2023-09-12T13:07:55;26.80;99.90
10046;DHT22;5063;50.878;4.742;2023-09-12T13:10:21;26.70;99.90
10046;DHT22;5063;50.878;4.742;2023-09-12T13:12:48;26.80;99.90
10046;DHT22;5063;50.878;4.742;2023-09-12T13:15:14;27.00;99.90
10046;DHT22;5063;50.878;4.742;2023-09-12T13:17:41;27.30;99.90
10046;DHT22;5063;50.878;4.742;2023-09-12T13:20:08;27.50;99.90
10046;DHT22;5063;50.878;4.742;2023-09-12T13:22:37;27.70;99.90
10046;DHT22;5063;50.878;4.742;2023-09-12T13:25:03;28.00;99.90
10046;DHT22;5063;50.878;4.742;2023-09-12T13:27:29;28.00;99.90
10046;DHT22;5063;50.878;4.742;2023-09-12T13:29:55;28.10;99.90
10046;DHT22;5063;50.878;4.742;2023-09-12T13:32:21;28.20;99.90
10046;DHT22;5063;50.878;4.742;2023-09-12T13:34:47;28.20;99.90
10046;DHT22;5063;50.878;4.742;2023-09-12T13:37:12;28.00;99.90
10046;DHT22;5063;50.878;4.742;2023-09-12T13:39:38;28.20;99.90
10046;DHT22;5063;50.878;4.742;2023-09-12T13:42:06;28.10;99.90
10046;DHT22;5063;50.878;4.742;2023-09-12T13:44:33;28.10;99.90
10046;DHT22;5063;50.878;4.742;2023-09-12T13:46:59;27.80;99.90
10046;DHT22;5063;50.878;4.742;2023-09-12T13:49:25;27.30;99.90
10046;DHT22;5063;50.878;4.742;2023-09-12T13:51:51;27.10;99.90
10046;DHT22;5063;50.878;4.742;2023-09-12T13:54:16;26.90;99.90
10046;DHT22;5063;50.878;4.742;2023-09-12T13:56:42;26.70;99.90
10046;DHT22;5063;50.878;4.742;2023-09-12T13:59:08;26.50;99.90
10046;DHT22;5063;50.878;4.742;2023-09-12T14:01:33;26.30;99.90
10046;DHT22;5063;50.878;4.742;2023-09-12T14:03:59;26.30;99.90
10046;DHT22;5063;50.878;4.742;2023-09-12T14:06:25;26.20;99.90
10046;DHT22;5063;50.878;4.742;2023-09-12T14:08:52;26.20;99.90
10046;DHT22;5063;50.878;4.742;2023-09-12T14:11:18;26.20;99.90
10046;DHT22;5063;50.878;4.742;2023-09-12T14:13:43;26.10;99.90
10046;DHT22;5063;50.878;4.742;2023-09-12T14:16:09;26.00;99.90
10046;DHT22;5063;50.878;4.742;2023-09-12T14:18:35;25.90;99.90
10046;DHT22;5063;50.878;4.742;2023-09-12T14:21:00;25.70;99.90
10046;DHT22;5063;50.878;4.742;2023-09-12T14:23:26;25.50;99.90
10046;DHT22;5063;50.878;4.742;2023-09-12T14:25:52;25.30;99.90
10046;DHT22;5063;50.878;4.742;2023-09-12T14:28:18;25.30;99.90
10046;DHT22;5063;50.878;4.742;2023-09-12T14:30:43;25.20;99.90
10046;DHT22;5063;50.878;4.742;2023-09-12T14:33:13;25.20;99.90
10046;DHT22;5063;50.878;4.742;2023-09-12T14:35:40;25.20;99.90
10046;DHT22;5063;50.878;4.742;2023-09-12T14:38:07;25.10;99.90
10046;DHT22;5063;50.878;4.742;2023-09-12T14:40:33;25.10;99.90
10046;DHT22;5063;50.878;4.742;2023-09-12T14:43:00;25.10;99.90
10046;DHT22;5063;50.878;4.742;2023-09-12T14:45:27;25.00;99.90
10046;DHT22;5063;50.878;4.742;2023-09-12T14:47:53;24.90;99.90
10046;DHT22;5063;50.878;4.742;2023-09-12T14:50:21;24.70;99.90
10046;DHT22;5063;50.878;4.742;2023-09-12T14:52:50;24.70;99.90
10046;DHT22;5063;50.878;4.742;2023-09-12T14:55:15;24.80;99.90
10046;DHT22;5063;50.878;4.742;2023-09-12T14:57:42;24.80;99.90
10046;DHT22;5063;50.878;4.742;2023-09-12T15:00:08;24.90;99.90
10046;DHT22;5063;50.878;4.742;2023-09-12T15:02:34;24.70;99.90
10046;DHT22;5063;50.878;4.742;2023-09-12T15:05:00;24.70;99.90
10046;DHT22;5063;50.878;4.742;2023-09-12T15:07:27;24.60;99.90
10046;DHT22;5063;50.878;4.742;2023-09-12T15:09:55;24.50;99.90
10046;DHT22;5063;50.878;4.742;2023-09-12T15:12:21;24.40;99.90
10046;DHT22;5063;50.878;4.742;2023-09-12T15:14:46;24.30;99.90
10046;DHT22;5063;50.878;4.742;2023-09-12T15:17:12;24.20;99.90
10046;DHT22;5063;50.878;4.742;2023-09-12T15:19:38;24.20;99.90
10046;DHT22;5063;50.878;4.742;2023-09-12T15:22:04;24.20;99.90
10046;DHT22;5063;50.878;4.742;2023-09-12T15:24:29;24.20;99.90
10046;DHT22;5063;50.878;4.742;2023-09-12T15:26:55;24.20;99.90
10046;DHT22;5063;50.878;4.742;2023-09-12T15:29:21;24.10;99.90
10046;DHT22;5063;50.878;4.742;2023-09-12T15:31:47;24.10;99.90
10046;DHT22;5063;50.878;4.742;2023-09-12T15:34:12;23.90;99.90
10046;DHT22;5063;50.878;4.742;2023-09-12T15:36:43;23.80;99.90
10046;DHT22;5063;50.878;4.742;2023-09-12T15:39:09;23.80;99.90
10046;DHT22;5063;50.878;4.742;2023-09-12T15:41:36;23.90;99.90
10046;DHT22;5063;50.878;4.742;2023-09-12T15:44:01;23.80;99.90
10046;DHT22;5063;50.878;4.742;2023-09-12T15:46:29;23.80;99.90
10046;DHT22;5063;50.878;4.742;2023-09-12T15:48:55;23.60;99.90
10046;DHT22;5063;50.878;4.742;2023-09-12T15:51:21;23.50;99.90
10046;DHT22;5063;50.878;4.742;2023-09-12T15:53:47;23.40;99.90